Trajano de Morais, Brazil
Current Conditions -  °F | °C
As of 6:00 AM on Sunday 21 Dec 2014 (Local Time) from SBME Reporting Station
Clear Clear  
Wind Chill: 79°   Ceiling: Unl
Heat Index: 82°   Visibility: 6mi
Dew Point: 73°   Wind: 12mph
Humidity: 83%   Direction: 20°NNE
Pressure: 29.77"   Gusts: NA
Location:  22.06°S, 42.07°W
Report Text: SBME 210800Z 02010KT CAVOK 26/23 Q1008
Loading
Personal Weather Stations






























Interactive Weather Map New forecast layout! Learn more

10-Day Weather Forecast

Advertisements
Track Severe Weather on mobile